Time;durP1;ratioP1;P1;durP2;ratioP2;P2;SDS_P1;SDS_P2;PMS_P1;PMS_P2;Temp;Humidity;BMP_temperature;BMP_pressure;BME280_temperature;BME280_humidity;BME280_pressure;Samples;Min_cycle;Max_cycle;Signal;HPM_P1;HPM_P2
2023/10/17 00:02:50;;;;;;;1.00;1.00;;;;;;;8.11;nan;60333.34;5033381;28;20593;-67
2023/10/17 00:05:15;;;;;;;0.90;0.90;;;;;;;8.03;nan;60363.13;5032842;28;20179;-70
2023/10/17 00:07:45;;;;;;;1.30;1.20;;;;;;;7.93;nan;60568.59;5033192;28;20191;-64
2023/10/17 00:10:18;;;;;;;1.77;1.67;;;;;;;7.68;nan;60324.53;5032148;28;20175;-66
2023/10/17 00:12:50;;;;;;;1.07;1.07;;;;;;;7.90;nan;60628.81;5031462;28;20314;-67
2023/10/17 00:15:28;;;;;;;1.50;1.40;;;;;;;7.87;nan;60340.69;5033287;28;20180;-67
2023/10/17 00:18:03;;;;;;;1.90;1.53;;;;;;;7.74;nan;60392.22;5033044;28;20261;-68
2023/10/17 00:20:37;;;;;;;1.10;1.10;;;;;;;7.90;nan;60313.00;5033084;28;20159;-65
2023/10/17 00:23:04;;;;;;;2.13;1.93;;;;;;;7.79;nan;60443.03;5033186;28;20183;-67
2023/10/17 00:25:29;;;;;;;1.23;1.10;;;;;;;7.72;nan;60372.19;5032805;28;20239;-69
2023/10/17 00:27:55;;;;;;;1.33;1.23;;;;;;;7.53;nan;60406.84;5032867;28;20176;-66
2023/10/17 00:30:21;;;;;;;1.50;1.40;;;;;;;7.64;nan;60311.88;5031850;28;20175;-66
2023/10/17 00:32:50;;;;;;;1.50;1.40;;;;;;;7.54;nan;60413.03;5032813;28;20175;-67
2023/10/17 00:35:18;;;;;;;1.40;1.30;;;;;;;7.86;nan;60346.66;5032191;28;20167;-68
2023/10/17 00:37:56;;;;;;;0.97;0.97;;;;;;;7.52;nan;60418.44;5031055;28;20316;-70
2023/10/17 00:40:34;;;;;;;1.50;1.40;;;;;;;7.65;nan;60257.66;5032643;28;20638;-68
2023/10/17 00:43:05;;;;;;;1.20;1.10;;;;;;;7.62;nan;60477.91;5032592;28;20164;-67
2023/10/17 00:45:32;;;;;;;1.20;1.20;;;;;;;7.45;nan;60284.13;5032773;28;20179;-70
2023/10/17 00:48:00;;;;;;;1.20;1.20;;;;;;;7.65;nan;60305.38;5032808;28;20178;-68
2023/10/17 00:50:26;;;;;;;1.47;1.37;;;;;;;7.46;nan;60277.06;5032741;28;20171;-68
2023/10/17 00:52:52;;;;;;;1.87;1.23;;;;;;;7.42;nan;60417.38;5032583;28;20175;-68
2023/10/17 00:55:18;;;;;;;1.40;1.30;;;;;;;7.64;nan;60296.63;5031011;28;20248;-66
2023/10/17 00:57:45;;;;;;;1.50;1.40;;;;;;;7.54;nan;60261.16;5035438;28;20207;-66
2023/10/17 01:00:35;;;;;;;1.30;1.20;;;;;;;7.73;nan;60550.66;5031993;28;20728;-69
2023/10/17 01:03:07;;;;;;;1.07;1.07;;;;;;;7.82;nan;60324.38;5032194;28;20167;-65
2023/10/17 01:08:39;;;;;;;1.20;1.20;;;;;;;7.60;nan;60360.75;5031749;28;20663;-67
2023/10/17 01:11:09;;;;;;;1.33;1.23;;;;;;;7.85;nan;60348.06;5030554;28;20179;-68
2023/10/17 01:13:38;;;;;;;1.37;1.27;;;;;;;7.93;nan;60316.91;5031920;28;20179;-67
2023/10/17 01:16:09;;;;;;;1.13;1.07;;;;;;;7.89;nan;60360.16;5031834;28;20255;-68
2023/10/17 01:18:34;;;;;;;1.97;1.50;;;;;;;7.87;nan;60319.78;5031794;28;20201;-70
2023/10/17 01:21:00;;;;;;;1.10;1.10;;;;;;;7.60;nan;60429.94;5032335;28;20183;-69
2023/10/17 01:23:29;;;;;;;1.57;1.47;;;;;;;7.55;nan;60330.31;5031815;28;20270;-65
2023/10/17 01:25:56;;;;;;;1.20;1.20;;;;;;;7.67;nan;60340.66;5031970;28;20195;-66
2023/10/17 01:28:22;;;;;;;1.13;1.13;;;;;;;7.38;nan;60324.56;5031949;28;20206;-67
2023/10/17 01:30:48;;;;;;;1.80;1.50;;;;;;;7.41;nan;60543.28;5032473;28;20233;-67
2023/10/17 01:33:14;;;;;;;1.10;1.10;;;;;;;7.16;nan;60279.09;5032129;28;20183;-66
2023/10/17 01:35:44;;;;;;;1.37;1.27;;;;;;;7.25;nan;60388.75;5031926;28;20176;-71
2023/10/17 01:38:09;;;;;;;1.00;1.00;;;;;;;7.08;nan;60341.78;5032407;28;20266;-67
2023/10/17 01:40:35;;;;;;;1.10;1.10;;;;;;;7.02;nan;60289.97;5033468;28;20657;-65
2023/10/17 01:43:00;;;;;;;1.70;1.60;;;;;;;7.01;nan;60314.22;5035994;28;20175;-69
2023/10/17 01:45:27;;;;;;;1.10;1.10;;;;;;;7.00;nan;60236.38;5034518;28;20179;-68
2023/10/17 01:47:53;;;;;;;1.33;1.23;;;;;;;6.91;nan;60369.03;5035638;28;20191;-67
2023/10/17 01:50:24;;;;;;;1.10;1.10;;;;;;;6.67;nan;60182.31;5035987;28;20171;-66
2023/10/17 01:52:53;;;;;;;1.20;1.20;;;;;;;6.78;nan;60225.06;5035359;28;20250;-67
2023/10/17 01:55:24;;;;;;;1.20;1.20;;;;;;;6.80;nan;60272.41;5035622;28;20186;-66
2023/10/17 01:57:54;;;;;;;1.10;1.10;;;;;;;6.70;nan;60355.13;5035928;28;20193;-69
2023/10/17 02:03:03;;;;;;;1.40;1.30;;;;;;;6.56;nan;60215.72;5035618;28;20182;-68
2023/10/17 02:05:29;;;;;;;1.10;1.10;;;;;;;6.38;nan;60314.78;5035496;28;20175;-68
2023/10/17 02:07:55;;;;;;;1.43;1.13;;;;;;;6.35;nan;60265.78;5034100;28;20210;-66
2023/10/17 02:10:21;;;;;;;1.10;1.10;;;;;;;6.39;nan;60285.47;5035621;28;20237;-68
2023/10/17 02:12:48;;;;;;;1.00;1.00;;;;;;;6.54;nan;60243.91;5035456;28;20698;-68
2023/10/17 02:15:19;;;;;;;1.10;1.10;;;;;;;6.37;nan;60288.88;5035319;28;20233;-66
2023/10/17 02:17:46;;;;;;;1.37;1.27;;;;;;;6.54;nan;60292.66;5035191;28;20229;-65
2023/10/17 02:20:30;;;;;;;1.27;1.23;;;;;;;6.48;nan;60179.44;5035212;28;20214;-68
2023/10/17 02:23:02;;;;;;;1.50;1.40;;;;;;;6.22;nan;60340.56;5034786;28;20543;-67
2023/10/17 02:25:32;;;;;;;1.47;1.37;;;;;;;6.35;nan;60189.72;5033928;28;20175;-66
2023/10/17 02:27:58;;;;;;;1.00;1.00;;;;;;;6.10;nan;60264.31;5034714;28;20202;-67
2023/10/17 02:30:24;;;;;;;2.23;2.03;;;;;;;6.19;nan;60183.13;5033674;28;20179;-66
2023/10/17 02:32:53;;;;;;;1.33;1.23;;;;;;;6.00;nan;60415.34;5034641;28;20187;-67
2023/10/17 02:35:30;;;;;;;1.00;1.00;;;;;;;5.74;nan;60143.53;5035264;28;20183;-69
2023/10/17 02:37:59;;;;;;;1.60;1.50;;;;;;;5.97;nan;60150.38;5034916;28;20206;-68
2023/10/17 02:40:25;;;;;;;1.13;1.13;;;;;;;5.84;nan;60235.22;5034368;28;20697;-65
2023/10/17 02:42:50;;;;;;;1.07;1.07;;;;;;;5.80;nan;60149.69;5034885;28;20281;-68
2023/10/17 02:45:25;;;;;;;1.37;1.37;;;;;;;5.74;nan;60209.41;5034747;28;20610;-68
2023/10/17 02:47:56;;;;;;;1.70;1.60;;;;;;;5.60;nan;60203.34;5034586;28;20193;-69
2023/10/17 02:50:44;;;;;;;1.17;1.17;;;;;;;5.64;nan;60235.69;5034871;28;20206;-70
2023/10/17 02:53:14;;;;;;;2.10;1.30;;;;;;;5.58;nan;60216.88;5033873;28;20191;-67
2023/10/17 02:55:40;;;;;;;2.00;1.90;;;;;;;5.77;nan;60103.84;5034585;28;20160;-68
2023/10/17 02:58:05;;;;;;;1.10;1.10;;;;;;;5.66;nan;60258.72;5037334;28;20171;-65
2023/10/17 03:00:34;;;;;;;1.40;1.30;;;;;;;5.55;nan;60294.53;5034261;28;20195;-67
2023/10/17 03:02:59;;;;;;;1.10;1.10;;;;;;;5.56;nan;60102.63;5034392;28;20178;-67
2023/10/17 03:05:29;;;;;;;1.30;1.27;;;;;;;5.52;nan;60341.28;5034563;28;20258;-65
2023/10/17 03:07:54;;;;;;;1.70;1.60;;;;;;;5.42;nan;60350.91;5034253;28;20206;-68
2023/10/17 03:10:40;;;;;;;1.77;1.60;;;;;;;5.50;nan;60192.75;5034337;28;20283;-68
2023/10/17 03:13:22;;;;;;;2.10;1.90;;;;;;;5.40;nan;60322.78;5034563;28;20262;-67
2023/10/17 03:15:56;;;;;;;1.97;1.87;;;;;;;5.47;nan;60100.75;5033377;28;20183;-68
2023/10/17 03:18:22;;;;;;;1.50;1.37;;;;;;;5.49;nan;60199.22;5034062;28;20552;-68
2023/10/17 03:20:51;;;;;;;1.53;1.43;;;;;;;5.24;nan;60184.50;5034352;28;20187;-68
2023/10/17 03:23:19;;;;;;;1.30;1.30;;;;;;;5.31;nan;60323.97;5032820;28;20229;-68
2023/10/17 03:25:46;;;;;;;1.60;1.50;;;;;;;5.28;nan;60170.69;5034247;28;20248;-66
2023/10/17 03:28:15;;;;;;;1.47;1.40;;;;;;;5.31;nan;60096.13;5033981;28;20650;-69
2023/10/17 03:30:48;;;;;;;1.37;1.33;;;;;;;5.33;nan;60321.13;5033770;28;20266;-69
2023/10/17 03:33:26;;;;;;;1.40;1.30;;;;;;;5.13;nan;60073.50;5034002;28;20183;-70
2023/10/17 03:38:26;;;;;;;1.13;1.13;;;;;;;5.11;nan;60157.31;5033950;28;20585;-66
2023/10/17 03:41:01;;;;;;;1.70;1.60;;;;;;;5.15;nan;60166.28;5033337;28;20237;-68
2023/10/17 03:43:28;;;;;;;1.53;1.43;;;;;;;5.15;nan;60184.56;5033469;28;20653;-70
2023/10/17 03:45:57;;;;;;;1.50;1.40;;;;;;;5.21;nan;60069.78;5033377;28;20188;-67
2023/10/17 03:48:24;;;;;;;1.10;1.10;;;;;;;5.04;nan;60151.47;5033382;28;20234;-69
2023/10/17 03:50:59;;;;;;;1.40;1.33;;;;;;;5.12;nan;60145.78;5033884;28;20175;-66
2023/10/17 03:53:28;;;;;;;1.40;1.13;;;;;;;5.20;nan;60164.84;5033160;28;20167;-68
2023/10/17 03:55:54;;;;;;;1.73;1.63;;;;;;;5.08;nan;60169.16;5033687;28;20244;-67
2023/10/17 04:00:49;;;;;;;1.20;1.10;;;;;;;5.01;nan;60158.81;5034771;28;20178;-69
2023/10/17 04:03:23;;;;;;;1.53;1.43;;;;;;;5.17;nan;60097.66;5033140;28;20183;-69
2023/10/17 04:05:51;;;;;;;1.27;1.27;;;;;;;5.22;nan;60083.00;5032495;28;20166;-67
2023/10/17 04:08:25;;;;;;;1.40;1.30;;;;;;;5.18;nan;60076.00;5032133;28;20269;-66
2023/10/17 04:10:54;;;;;;;2.00;1.60;;;;;;;5.10;nan;60098.00;5033388;28;20151;-70
2023/10/17 04:15:44;;;;;;;1.37;1.27;;;;;;;4.82;nan;60041.47;5026496;28;20184;-66
2023/10/17 04:18:11;;;;;;;1.80;1.60;;;;;;;4.93;nan;60066.38;5023036;28;20194;-68
2023/10/17 04:20:38;;;;;;;1.20;1.20;;;;;;;4.92;nan;60135.53;5028413;28;20187;-66
2023/10/17 04:23:05;;;;;;;1.77;1.67;;;;;;;4.96;nan;60036.84;5033082;28;20167;-65
2023/10/17 04:25:34;;;;;;;1.13;1.13;;;;;;;4.92;nan;60037.44;5031529;28;20631;-68
2023/10/17 04:28:00;;;;;;;1.20;1.20;;;;;;;4.68;nan;60155.38;5031924;28;20195;-68
2023/10/17 04:30:35;;;;;;;1.50;1.40;;;;;;;4.86;nan;60111.69;5030662;28;20183;-65
2023/10/17 04:33:14;;;;;;;1.50;1.40;;;;;;;4.58;nan;60017.25;5023278;28;20526;-67
2023/10/17 04:35:55;;;;;;;1.20;1.20;;;;;;;4.56;nan;60159.69;5020801;28;20171;-69
2023/10/17 04:38:27;;;;;;;1.10;1.10;;;;;;;4.55;nan;60113.06;5022853;28;20168;-68
2023/10/17 04:41:13;;;;;;;1.57;1.47;;;;;;;4.59;nan;60099.81;5032039;28;20251;-71
2023/10/17 04:43:44;;;;;;;1.60;1.53;;;;;;;4.38;nan;60079.50;5032294;28;20179;-70
2023/10/17 04:46:09;;;;;;;1.10;1.10;;;;;;;4.55;nan;60016.44;5031910;28;20607;-65
2023/10/17 04:48:36;;;;;;;1.30;1.30;;;;;;;4.73;nan;60062.34;5031892;28;20207;-66
2023/10/17 04:53:49;;;;;;;1.83;1.50;;;;;;;4.84;nan;59998.19;5031724;28;20174;-68
2023/10/17 04:56:18;;;;;;;1.13;1.13;;;;;;;4.82;nan;60152.75;5031774;28;20390;-70
2023/10/17 05:04:18;;;;;;;1.03;1.03;;;;;;;5.17;nan;60070.38;4999591;28;20195;-68
2023/10/17 06:17:48;;;;;;;1.57;1.47;;;;;;;8.66;nan;60427.44;5028472;28;20267;-68
2023/10/17 06:20:16;;;;;;;1.63;1.53;;;;;;;8.73;nan;60509.66;5029199;28;20167;-66
2023/10/17 06:28:29;;;;;;;1.63;1.53;;;;;;;8.77;nan;60518.69;5033027;28;20626;-68
2023/10/17 06:33:38;;;;;;;1.00;1.00;;;;;;;9.02;nan;60564.53;5035007;28;20654;-70
2023/10/17 06:36:13;;;;;;;1.07;1.07;;;;;;;9.12;nan;60443.28;5034796;28;20215;-67
2023/10/17 06:38:47;;;;;;;1.07;1.07;;;;;;;9.37;nan;60580.31;5034616;28;20598;-66
2023/10/17 06:41:27;;;;;;;1.97;1.30;;;;;;;9.61;nan;60507.81;5033785;28;20179;-69
2023/10/17 06:44:05;;;;;;;1.50;1.23;;;;;;;9.36;nan;60579.19;5031917;28;20179;-68
2023/10/17 06:46:30;;;;;;;3.00;1.50;;;;;;;9.20;nan;60573.97;5032137;28;20301;-67
2023/10/17 06:49:04;;;;;;;1.67;1.27;;;;;;;9.20;nan;60568.88;5031667;28;20195;-66
2023/10/17 06:51:30;;;;;;;1.30;1.20;;;;;;;9.60;nan;60597.91;5033118;28;20183;-68
2023/10/17 06:53:57;;;;;;;1.17;1.17;;;;;;;10.11;nan;60535.22;5033311;28;20187;-68
2023/10/17 06:56:25;;;;;;;1.53;1.43;;;;;;;10.13;nan;60567.50;5032349;28;20558;-68
2023/10/17 06:59:03;;;;;;;2.93;1.70;;;;;;;10.41;nan;60598.34;5036039;28;20206;-69
2023/10/17 07:01:28;;;;;;;1.30;1.23;;;;;;;10.55;nan;60568.09;5014977;28;20171;-70
2023/10/17 07:03:55;;;;;;;1.95;1.85;;;;;;;10.90;nan;60622.09;5023377;28;20666;-67
2023/10/17 07:06:24;;;;;;;1.13;1.10;;;;;;;11.07;nan;60764.41;5034517;28;20186;-66
2023/10/17 07:08:50;;;;;;;2.10;1.92;;;;;;;11.26;nan;60641.47;5034288;28;20689;-65
2023/10/17 07:14:47;;;;;;;1.45;1.35;;;;;;;11.61;nan;60913.53;5034192;28;20233;-68
2023/10/17 07:16:48;;;;;;;2.55;1.65;;;;;;;11.66;nan;60726.72;5036789;28;20184;-68
2023/10/17 07:22:05;;;;;;;1.58;1.35;;;;;;;11.70;nan;60695.41;5033060;28;20198;-66
2023/10/17 07:24:37;;;;;;;2.63;2.42;;;;;;;11.51;nan;60767.25;5032467;28;20171;-66
2023/10/17 07:27:11;;;;;;;1.60;1.50;;;;;;;11.62;nan;60707.44;5032219;28;20611;-70
2023/10/17 07:29:37;;;;;;;1.17;1.17;;;;;;;11.74;nan;60767.00;5033021;28;20203;-68
2023/10/17 07:32:09;;;;;;;0.93;0.93;;;;;;;11.79;nan;60838.59;5030369;28;20548;-70
2023/10/17 07:34:36;;;;;;;4.32;1.83;;;;;;;12.06;nan;60735.84;5031787;28;20899;-66
2023/10/17 07:37:22;;;;;;;1.48;1.27;;;;;;;12.04;nan;60876.94;5030875;28;20337;-69
2023/10/17 07:42:47;;;;;;;1.15;1.15;;;;;;;12.09;nan;60716.16;5017421;28;20207;-72
2023/10/17 07:45:16;;;;;;;1.52;1.42;;;;;;;12.38;nan;60730.25;5030594;28;20241;-65
2023/10/17 07:47:43;;;;;;;1.35;1.25;;;;;;;12.37;nan;60775.22;5027788;28;20576;-66
2023/10/17 07:50:13;;;;;;;0.90;0.90;;;;;;;12.69;nan;60757.38;5030847;28;20184;-71
2023/10/17 07:52:50;;;;;;;1.50;1.40;;;;;;;12.65;nan;60911.19;5032314;28;20666;-69
2023/10/17 07:55:22;;;;;;;1.20;1.20;;;;;;;13.07;nan;60804.03;5030902;28;20178;-66
2023/10/17 07:57:55;;;;;;;1.30;1.20;;;;;;;13.02;nan;60939.44;5028098;28;20191;-68
2023/10/17 08:00:27;;;;;;;1.38;1.27;;;;;;;13.40;nan;60869.38;5033508;28;20282;-63
2023/10/17 08:03:06;;;;;;;1.00;1.00;;;;;;;13.28;nan;60871.81;5030828;28;20213;-67
2023/10/17 08:05:44;;;;;;;1.50;1.40;;;;;;;13.39;nan;61024.75;5029819;28;20183;-68
2023/10/17 08:08:14;;;;;;;1.27;1.17;;;;;;;13.36;nan;60974.63;5030071;28;20314;-69
2023/10/17 08:10:46;;;;;;;2.63;1.42;;;;;;;13.46;nan;60883.81;5030730;28;20565;-68
2023/10/17 08:13:12;;;;;;;1.95;1.73;;;;;;;12.97;nan;60954.88;5030826;28;20254;-69
2023/10/17 08:15:51;;;;;;;1.40;1.30;;;;;;;13.11;nan;60816.25;5031454;28;20183;-68
2023/10/17 08:18:22;;;;;;;1.40;1.30;;;;;;;13.58;nan;60999.41;5030096;28;20274;-68
2023/10/17 08:21:33;;;;;;;1.35;1.25;;;;;;;13.49;nan;60986.69;5027689;28;20214;-67
2023/10/17 08:23:40;;;;;;;1.33;1.08;;;;;;;13.59;nan;60892.75;5029463;28;20191;-63
2023/10/17 08:26:11;;;;;;;1.58;1.48;;;;;;;13.70;nan;60897.41;5030871;28;20270;-64
2023/10/17 08:31:45;;;;;;;1.35;1.10;;;;;;;14.02;nan;60866.63;5028515;28;20228;-63
2023/10/17 08:42:13;;;;;;;1.20;1.10;;;;;;;13.87;nan;60906.25;5011753;28;20156;-65
2023/10/17 08:44:46;;;;;;;1.10;1.10;;;;;;;13.69;nan;60878.31;5012024;28;20168;-63
2023/10/17 08:47:16;;;;;;;1.50;1.40;;;;;;;13.52;nan;61036.81;5012004;28;20160;-64
2023/10/17 08:49:47;;;;;;;1.45;1.38;;;;;;;13.39;nan;60842.03;5011223;28;20199;-63
2023/10/17 08:52:24;;;;;;;1.40;1.30;;;;;;;13.61;nan;60908.38;5011793;28;20187;-65
2023/10/17 08:54:51;;;;;;;1.02;1.02;;;;;;;13.80;nan;60908.09;5011654;28;20241;-63
2023/10/17 08:57:17;;;;;;;1.10;1.10;;;;;;;13.61;nan;60918.66;5011905;28;20176;-63
2023/10/17 09:04:53;;;;;;;1.10;1.02;;;;;;;14.27;nan;60950.13;5011813;28;20538;-62
2023/10/17 09:07:42;;;;;;;1.15;1.15;;;;;;;14.38;nan;60952.28;5011727;28;20180;-64
2023/10/17 09:10:21;;;;;;;1.50;1.40;;;;;;;14.39;nan;60979.06;5011752;28;20164;-61
2023/10/17 09:13:52;;;;;;;0.80;0.80;;;;;;;14.51;nan;61106.25;5011595;28;20219;-64
2023/10/17 09:16:13;;;;;;;1.30;1.20;;;;;;;14.20;nan;61047.56;5011075;28;20614;-64
2023/10/17 09:18:47;;;;;;;1.00;1.00;;;;;;;14.38;nan;60950.25;5011808;28;20172;-61
2023/10/17 09:21:13;;;;;;;1.10;1.10;;;;;;;14.18;nan;60958.56;5011751;28;20167;-63
2023/10/17 09:23:41;;;;;;;0.95;0.95;;;;;;;14.34;nan;60942.59;5011695;28;20219;-61
2023/10/17 09:26:10;;;;;;;1.30;1.20;;;;;;;14.67;nan;60971.47;5011704;28;20172;-61
2023/10/17 09:28:36;;;;;;;1.58;1.15;;;;;;;14.88;nan;61049.13;5011385;28;20211;-64
2023/10/17 09:31:08;;;;;;;0.98;0.98;;;;;;;14.88;nan;61015.69;5011286;28;20263;-61
2023/10/17 09:33:35;;;;;;;1.00;1.00;;;;;;;14.79;nan;61240.13;5011129;28;20233;-62
2023/10/17 09:36:04;;;;;;;1.55;1.45;;;;;;;14.62;nan;61017.25;5011307;28;20203;-63
2023/10/17 09:38:33;;;;;;;1.02;1.02;;;;;;;14.63;nan;61131.50;5011485;28;20168;-64
2023/10/17 09:40:59;;;;;;;1.10;1.10;;;;;;;14.67;nan;61149.44;5010998;28;20547;-63
2023/10/17 09:43:25;;;;;;;1.65;1.55;;;;;;;14.88;nan;61121.16;5011309;28;20180;-62
2023/10/17 09:45:55;;;;;;;1.00;1.00;;;;;;;15.34;nan;61074.66;5011164;28;20271;-64
2023/10/17 09:48:34;;;;;;;0.82;0.82;;;;;;;15.91;nan;61213.06;5011441;28;20250;-63
2023/10/17 09:51:01;;;;;;;1.30;1.20;;;;;;;15.85;nan;61137.31;5011798;28;20244;-64
2023/10/17 09:53:31;;;;;;;6.15;1.33;;;;;;;15.87;nan;61258.06;5011494;28;20631;-61
2023/10/17 09:56:01;;;;;;;1.30;1.20;;;;;;;16.17;nan;61113.00;5011826;28;20195;-62
2023/10/17 09:58:31;;;;;;;1.52;1.30;;;;;;;16.57;nan;61351.50;5011454;28;20183;-63
2023/10/17 10:01:04;;;;;;;0.88;0.88;;;;;;;16.81;nan;61235.63;5011817;28;20171;-62
2023/10/17 10:03:30;;;;;;;1.05;1.00;;;;;;;17.05;nan;61384.03;5014557;28;20231;-62
2023/10/17 10:06:21;;;;;;;1.38;1.00;;;;;;;17.16;nan;61345.41;5015568;28;20168;-64
2023/10/17 10:08:47;;;;;;;1.05;1.05;;;;;;;16.97;nan;61212.97;5015229;28;20206;-62
2023/10/17 10:11:12;;;;;;;0.75;0.75;;;;;;;16.97;nan;61359.53;5014994;28;20259;-63
2023/10/17 10:14:05;;;;;;;1.20;1.02;;;;;;;16.78;nan;61295.28;5015002;28;20168;-64
2023/10/17 10:16:54;;;;;;;1.58;1.10;;;;;;;16.78;nan;61178.66;5011816;28;20195;-62
2023/10/17 10:19:38;;;;;;;1.20;1.10;;;;;;;16.93;nan;61352.41;5023384;28;20183;-64
2023/10/17 10:22:05;;;;;;;1.17;1.05;;;;;;;17.29;nan;61434.44;5034404;28;20171;-61
2023/10/17 10:24:33;;;;;;;1.05;1.00;;;;;;;17.09;nan;61398.88;5033960;28;20267;-64
2023/10/17 10:27:24;;;;;;;1.10;1.00;;;;;;;17.19;nan;61361.16;5033860;28;20268;-67
2023/10/17 10:29:56;;;;;;;0.98;0.98;;;;;;;16.80;nan;61278.94;5033985;28;20203;-65
2023/10/17 10:32:51;;;;;;;0.98;0.98;;;;;;;17.08;nan;61366.78;5034353;28;20167;-64
2023/10/17 10:35:16;;;;;;;1.45;1.33;;;;;;;16.77;nan;61198.72;5019877;28;20195;-64
2023/10/17 10:37:50;;;;;;;1.23;1.13;;;;;;;16.67;nan;61326.16;5034828;28;20168;-62
2023/10/17 10:40:26;;;;;;;1.50;1.38;;;;;;;17.00;nan;61264.84;5034138;28;20195;-62
2023/10/17 10:42:54;;;;;;;1.67;1.20;;;;;;;17.31;nan;61557.47;5034224;28;20622;-63
2023/10/17 10:45:36;;;;;;;1.20;1.10;;;;;;;17.47;nan;61271.41;5034018;28;20179;-62
2023/10/17 10:48:18;;;;;;;1.55;1.20;;;;;;;17.75;nan;61294.75;5033939;28;20191;-62
2023/10/17 10:50:48;;;;;;;1.00;1.00;;;;;;;17.77;nan;61371.34;5034173;28;20710;-65
2023/10/17 10:53:28;;;;;;;1.38;1.25;;;;;;;17.62;nan;61478.97;5034137;28;20187;-65
2023/10/17 10:55:59;;;;;;;1.20;1.10;;;;;;;17.93;nan;61350.69;5034248;28;20174;-65
2023/10/17 10:58:33;;;;;;;1.00;1.00;;;;;;;18.29;nan;61406.31;5033982;28;20269;-65
2023/10/17 11:01:02;;;;;;;2.03;1.08;;;;;;;18.16;nan;61314.06;5033472;28;20584;-63
2023/10/17 11:03:33;;;;;;;1.10;1.00;;;;;;;17.78;nan;61336.88;5033951;28;20179;-63
2023/10/17 11:06:04;;;;;;;1.02;1.00;;;;;;;17.63;nan;61325.66;5034381;28;20266;-65
2023/10/17 11:08:41;;;;;;;1.33;1.23;;;;;;;17.53;nan;61322.09;5033841;28;20670;-63
2023/10/17 11:11:09;;;;;;;1.40;1.30;;;;;;;17.38;nan;61276.19;5033984;28;20305;-65
2023/10/17 11:13:36;;;;;;;1.42;1.33;;;;;;;17.54;nan;61330.97;5033078;28;20202;-62
2023/10/17 11:16:06;;;;;;;0.90;0.90;;;;;;;17.80;nan;61427.00;5034011;28;20179;-65
2023/10/17 11:18:35;;;;;;;0.98;0.95;;;;;;;17.91;nan;61462.13;5033545;28;20163;-63
2023/10/17 11:21:02;;;;;;;1.08;0.98;;;;;;;17.77;nan;61377.09;5033753;28;20176;-66
2023/10/17 11:23:29;;;;;;;0.88;0.88;;;;;;;17.72;nan;61319.19;5033790;28;20259;-62
2023/10/17 11:25:59;;;;;;;1.17;1.10;;;;;;;18.03;nan;61361.97;5033502;28;20186;-66
2023/10/17 11:28:27;;;;;;;0.73;0.73;;;;;;;18.12;nan;61385.09;5033146;28;20187;-65
2023/10/17 11:30:53;;;;;;;1.05;0.95;;;;;;;18.35;nan;61421.44;5033123;28;20258;-66
2023/10/17 11:33:28;;;;;;;0.95;0.85;;;;;;;18.33;nan;61392.72;5032903;28;20191;-65
2023/10/17 11:35:53;;;;;;;1.67;1.10;;;;;;;18.01;nan;61341.63;5032711;28;20604;-64
2023/10/17 11:38:35;;;;;;;1.10;1.10;;;;;;;18.10;nan;61424.75;5032563;28;20179;-64
2023/10/17 11:41:05;;;;;;;1.10;1.00;;;;;;;18.32;nan;61381.81;5032905;28;20167;-62
2023/10/17 11:43:42;;;;;;;1.10;0.80;;;;;;;18.03;nan;61442.66;5032759;28;20168;-68
2023/10/17 11:46:12;;;;;;;0.60;0.60;;;;;;;18.22;nan;61375.13;5032884;28;20163;-65
2023/10/17 11:48:43;;;;;;;0.75;0.75;;;;;;;18.46;nan;61498.53;5032602;28;20197;-67
2023/10/17 11:51:13;;;;;;;1.20;1.02;;;;;;;18.32;nan;61588.72;5032528;28;20164;-63
2023/10/17 11:54:07;;;;;;;1.15;1.05;;;;;;;18.73;nan;61527.97;5032982;28;20171;-63
2023/10/17 11:56:37;;;;;;;0.60;0.60;;;;;;;18.86;nan;61522.59;5032818;28;20934;-63
2023/10/17 11:59:06;;;;;;;0.70;0.70;;;;;;;18.74;nan;61353.69;5032770;28;20254;-65
2023/10/17 12:01:34;;;;;;;1.13;1.00;;;;;;;18.60;nan;61554.66;5032742;28;20179;-66
2023/10/17 12:04:06;;;;;;;0.80;0.80;;;;;;;18.41;nan;61329.91;5032800;28;20263;-63
2023/10/17 12:06:35;;;;;;;1.15;1.05;;;;;;;18.53;nan;61544.72;5033729;28;20191;-66
2023/10/17 12:09:17;;;;;;;1.35;1.10;;;;;;;18.37;nan;61420.53;5032260;28;20658;-66
2023/10/17 12:11:47;;;;;;;0.75;0.75;;;;;;;18.41;nan;61427.63;5032061;28;20706;-62
2023/10/17 12:14:19;;;;;;;0.80;0.80;;;;;;;18.75;nan;61486.25;5032769;28;20187;-65
2023/10/17 12:16:55;;;;;;;0.70;0.70;;;;;;;18.68;nan;61512.00;5032464;28;20238;-66
2023/10/17 12:19:22;;;;;;;1.55;1.45;;;;;;;18.45;nan;61525.31;5032487;28;20171;-64
2023/10/17 12:21:48;;;;;;;0.80;0.80;;;;;;;18.45;nan;61388.19;5032362;28;20231;-66
2023/10/17 12:24:24;;;;;;;0.80;0.80;;;;;;;18.42;nan;61387.38;5032024;28;20244;-64
2023/10/17 12:26:50;;;;;;;0.90;0.90;;;;;;;18.34;nan;61363.41;5031683;28;20178;-64
2023/10/17 12:29:17;;;;;;;0.90;0.90;;;;;;;18.22;nan;61391.19;5032046;28;20780;-65
2023/10/17 12:31:43;;;;;;;1.30;1.10;;;;;;;18.35;nan;61530.06;5032204;28;20183;-62
2023/10/17 12:34:08;;;;;;;1.10;1.00;;;;;;;18.31;nan;61416.34;5030532;28;20194;-65
2023/10/17 12:36:35;;;;;;;0.85;0.85;;;;;;;18.53;nan;61620.34;5031839;28;20164;-64
2023/10/17 12:39:02;;;;;;;0.73;0.73;;;;;;;18.42;nan;61369.84;5032016;28;20198;-62
2023/10/17 12:41:30;;;;;;;1.13;0.80;;;;;;;18.22;nan;61357.03;5032122;28;20270;-64
2023/10/17 12:43:56;;;;;;;1.42;1.10;;;;;;;18.14;nan;61508.84;5031834;28;20160;-63
2023/10/17 12:46:21;;;;;;;0.68;0.65;;;;;;;18.38;nan;61502.41;5032139;28;20179;-66
2023/10/17 12:48:47;;;;;;;0.68;0.68;;;;;;;18.35;nan;61602.50;5031983;28;20195;-64
2023/10/17 12:51:12;;;;;;;1.20;1.10;;;;;;;18.24;nan;61393.47;5031618;28;20701;-65
2023/10/17 12:53:41;;;;;;;1.00;0.90;;;;;;;18.36;nan;61437.50;5031629;28;20254;-62
2023/10/17 12:56:10;;;;;;;0.80;0.80;;;;;;;18.23;nan;61490.59;5032077;28;20199;-65
2023/10/17 12:58:36;;;;;;;1.20;0.80;;;;;;;;;;5031962;28;20179;-65
2023/10/17 13:01:04;;;;;;;0.85;0.85;;;;;;;18.35;nan;61351.59;5031559;28;20184;-62
2023/10/17 13:03:33;;;;;;;0.80;0.80;;;;;;;18.30;nan;61384.75;5030531;28;20302;-65
2023/10/17 13:06:00;;;;;;;0.88;0.88;;;;;;;18.17;nan;61338.44;5031685;28;20170;-65
2023/10/17 13:08:26;;;;;;;1.05;1.00;;;;;;;18.29;nan;61399.13;5032021;28;20225;-64
2023/10/17 13:10:54;;;;;;;1.23;1.13;;;;;;;18.19;nan;61470.56;5031786;28;20171;-64
2023/10/17 13:13:19;;;;;;;1.00;0.93;;;;;;;18.06;nan;61396.97;5031573;28;20219;-62
2023/10/17 13:15:45;;;;;;;0.80;0.80;;;;;;;17.98;nan;61331.06;5031091;28;20260;-62
2023/10/17 13:18:12;;;;;;;0.80;0.80;;;;;;;17.86;nan;61340.19;5029857;28;20650;-63
2023/10/17 13:20:38;;;;;;;1.55;1.45;;;;;;;17.67;nan;61332.75;5031649;28;20618;-65
2023/10/17 13:23:04;;;;;;;0.70;0.70;;;;;;;17.61;nan;61278.94;5031683;28;20170;-65
2023/10/17 13:25:36;;;;;;;1.40;1.00;;;;;;;17.69;nan;61305.47;5031415;28;20214;-64
2023/10/17 13:28:02;;;;;;;1.00;1.00;;;;;;;;;;5031162;28;20167;-63
2023/10/17 13:30:28;;;;;;;1.20;1.10;;;;;;;17.42;nan;61296.78;5031409;28;20194;-61
2023/10/17 13:32:53;;;;;;;1.10;1.00;;;;;;;17.35;nan;61311.53;5031364;28;20302;-64
2023/10/17 13:35:21;;;;;;;2.05;0.98;;;;;;;17.29;nan;61284.09;5031321;28;20724;-63
2023/10/17 13:37:52;;;;;;;1.42;1.00;;;;;;;17.00;nan;61228.69;5034602;28;20171;-65
2023/10/17 13:40:23;;;;;;;1.13;1.02;;;;;;;16.95;nan;61262.34;5035400;28;20182;-66
2023/10/17 13:42:53;;;;;;;1.15;1.00;;;;;;;14.85;nan;61176.91;5035373;28;20258;-65
2023/10/17 13:45:22;;;;;;;0.88;0.88;;;;;;;16.55;nan;61359.00;5035139;28;20226;-64
2023/10/17 13:47:54;;;;;;;2.13;1.92;;;;;;;16.60;nan;61187.28;5034966;28;20630;-63
2023/10/17 13:50:21;;;;;;;1.02;0.98;;;;;;;14.03;nan;61000.75;5035040;28;20210;-62
2023/10/17 13:52:48;;;;;;;1.30;1.20;;;;;;;16.50;nan;61206.94;5034341;28;20179;-65
2023/10/17 13:55:25;;;;;;;1.45;1.35;;;;;;;16.29;nan;61178.63;5035221;28;20278;-64
2023/10/17 13:57:55;;;;;;;0.75;0.75;;;;;;;16.35;nan;61153.91;5034853;28;20175;-67
2023/10/17 14:00:22;;;;;;;3.03;1.13;;;;;;;16.06;nan;61082.56;5034750;28;20190;-65
2023/10/17 14:02:49;;;;;;;0.82;0.82;;;;;;;16.22;nan;61173.34;5034803;28;20159;-63
2023/10/17 14:05:17;;;;;;;0.90;0.90;;;;;;;16.15;nan;61126.19;5034754;28;20163;-65
2023/10/17 14:07:43;;;;;;;1.25;1.10;;;;;;;15.89;nan;61123.81;5035280;28;20164;-62
2023/10/17 14:10:12;;;;;;;1.15;1.05;;;;;;;15.88;nan;61245.75;5034768;28;20186;-65
2023/10/17 14:12:41;;;;;;;1.13;1.02;;;;;;;15.90;nan;61124.94;5033758;28;20227;-62
2023/10/17 14:15:08;;;;;;;0.95;0.95;;;;;;;15.75;nan;61278.00;5034397;28;20270;-65
2023/10/17 14:17:33;;;;;;;1.25;1.15;;;;;;;15.76;nan;61083.41;5034378;28;20175;-62
2023/10/17 14:20:16;;;;;;;1.00;1.00;;;;;;;15.57;nan;61095.47;5034364;28;20171;-64